sensor_id;sensor_type;location;lat;lon;timestamp;P1;durP1;ratioP1;P2;durP2;ratioP2
36923;SDS011;22841;50.252;18.688;2024-03-29T00:01:24;8.55;;;5.80;;
36923;SDS011;22841;50.252;18.688;2024-03-29T00:03:50;12.88;;;6.95;;
36923;SDS011;22841;50.252;18.688;2024-03-29T00:06:18;17.20;;;7.13;;
36923;SDS011;22841;50.252;18.688;2024-03-29T00:08:44;12.65;;;7.47;;
36923;SDS011;22841;50.252;18.688;2024-03-29T00:11:11;16.25;;;9.63;;
36923;SDS011;22841;50.252;18.688;2024-03-29T00:13:37;18.30;;;9.75;;
36923;SDS011;22841;50.252;18.688;2024-03-29T00:16:03;19.58;;;10.05;;
36923;SDS011;22841;50.252;18.688;2024-03-29T00:18:29;24.10;;;10.13;;
36923;SDS011;22841;50.252;18.688;2024-03-29T00:20:55;21.95;;;9.75;;
36923;SDS011;22841;50.252;18.688;2024-03-29T00:23:21;18.63;;;9.57;;
36923;SDS011;22841;50.252;18.688;2024-03-29T00:25:47;20.55;;;8.10;;
36923;SDS011;22841;50.252;18.688;2024-03-29T00:28:13;15.45;;;8.52;;
36923;SDS011;22841;50.252;18.688;2024-03-29T00:30:39;16.58;;;8.07;;
36923;SDS011;22841;50.252;18.688;2024-03-29T00:33:05;13.02;;;7.68;;
36923;SDS011;22841;50.252;18.688;2024-03-29T00:35:32;18.58;;;8.65;;
36923;SDS011;22841;50.252;18.688;2024-03-29T00:37:58;12.50;;;7.82;;
36923;SDS011;22841;50.252;18.688;2024-03-29T00:40:24;12.77;;;7.38;;
36923;SDS011;22841;50.252;18.688;2024-03-29T00:42:50;13.63;;;7.05;;
36923;SDS011;22841;50.252;18.688;2024-03-29T00:45:16;13.27;;;7.30;;
36923;SDS011;22841;50.252;18.688;2024-03-29T00:47:42;10.57;;;6.32;;
36923;SDS011;22841;50.252;18.688;2024-03-29T00:50:09;11.15;;;6.15;;
36923;SDS011;22841;50.252;18.688;2024-03-29T00:52:35;10.73;;;5.15;;
36923;SDS011;22841;50.252;18.688;2024-03-29T00:55:01;11.77;;;5.95;;
36923;SDS011;22841;50.252;18.688;2024-03-29T00:57:28;12.27;;;6.18;;
36923;SDS011;22841;50.252;18.688;2024-03-29T00:59:54;12.05;;;4.78;;
36923;SDS011;22841;50.252;18.688;2024-03-29T01:02:22;9.55;;;4.65;;
36923;SDS011;22841;50.252;18.688;2024-03-29T01:04:49;7.20;;;3.90;;
36923;SDS011;22841;50.252;18.688;2024-03-29T01:07:15;8.57;;;4.43;;
36923;SDS011;22841;50.252;18.688;2024-03-29T01:09:43;6.65;;;3.90;;
36923;SDS011;22841;50.252;18.688;2024-03-29T01:12:09;7.80;;;3.80;;
36923;SDS011;22841;50.252;18.688;2024-03-29T01:14:36;8.32;;;3.60;;
36923;SDS011;22841;50.252;18.688;2024-03-29T01:17:02;5.63;;;3.13;;
36923;SDS011;22841;50.252;18.688;2024-03-29T01:19:28;7.35;;;3.22;;
36923;SDS011;22841;50.252;18.688;2024-03-29T01:21:55;7.57;;;3.85;;
36923;SDS011;22841;50.252;18.688;2024-03-29T01:24:21;8.18;;;3.17;;
36923;SDS011;22841;50.252;18.688;2024-03-29T01:26:47;6.03;;;3.50;;
36923;SDS011;22841;50.252;18.688;2024-03-29T01:29:13;6.70;;;3.35;;
36923;SDS011;22841;50.252;18.688;2024-03-29T01:31:39;5.38;;;3.53;;
36923;SDS011;22841;50.252;18.688;2024-03-29T01:34:05;6.40;;;2.85;;
36923;SDS011;22841;50.252;18.688;2024-03-29T01:36:31;4.53;;;2.47;;
36923;SDS011;22841;50.252;18.688;2024-03-29T01:38:57;7.00;;;3.20;;
36923;SDS011;22841;50.252;18.688;2024-03-29T01:41:24;4.07;;;2.70;;
36923;SDS011;22841;50.252;18.688;2024-03-29T01:43:52;4.10;;;2.50;;
36923;SDS011;22841;50.252;18.688;2024-03-29T01:46:19;5.82;;;3.10;;
36923;SDS011;22841;50.252;18.688;2024-03-29T01:48:47;4.43;;;2.10;;
36923;SDS011;22841;50.252;18.688;2024-03-29T01:51:13;4.43;;;2.75;;
36923;SDS011;22841;50.252;18.688;2024-03-29T01:53:40;4.40;;;2.63;;
36923;SDS011;22841;50.252;18.688;2024-03-29T01:56:07;2.90;;;2.20;;
36923;SDS011;22841;50.252;18.688;2024-03-29T01:58:34;4.15;;;2.88;;
36923;SDS011;22841;50.252;18.688;2024-03-29T02:01:00;5.32;;;2.25;;
36923;SDS011;22841;50.252;18.688;2024-03-29T02:03:28;3.03;;;1.85;;
36923;SDS011;22841;50.252;18.688;2024-03-29T02:05:54;4.93;;;2.40;;
36923;SDS011;22841;50.252;18.688;2024-03-29T02:08:23;5.15;;;2.70;;
36923;SDS011;22841;50.252;18.688;2024-03-29T02:10:49;5.40;;;2.42;;
36923;SDS011;22841;50.252;18.688;2024-03-29T02:13:16;3.40;;;2.10;;
36923;SDS011;22841;50.252;18.688;2024-03-29T02:15:42;3.05;;;2.20;;
36923;SDS011;22841;50.252;18.688;2024-03-29T02:18:34;2.25;;;2.05;;
36923;SDS011;22841;50.252;18.688;2024-03-29T02:21:25;5.03;;;2.58;;
36923;SDS011;22841;50.252;18.688;2024-03-29T02:24:09;4.43;;;2.35;;
36923;SDS011;22841;50.252;18.688;2024-03-29T02:26:36;4.75;;;3.10;;
36923;SDS011;22841;50.252;18.688;2024-03-29T02:29:07;5.60;;;2.58;;
36923;SDS011;22841;50.252;18.688;2024-03-29T02:31:34;3.58;;;2.47;;
36923;SDS011;22841;50.252;18.688;2024-03-29T02:34:00;4.65;;;2.30;;
36923;SDS011;22841;50.252;18.688;2024-03-29T02:36:26;16.27;;;3.78;;
36923;SDS011;22841;50.252;18.688;2024-03-29T02:38:52;3.53;;;2.33;;
36923;SDS011;22841;50.252;18.688;2024-03-29T02:41:19;4.22;;;3.03;;
36923;SDS011;22841;50.252;18.688;2024-03-29T02:43:45;3.95;;;2.50;;
36923;SDS011;22841;50.252;18.688;2024-03-29T02:56:02;5.38;;;3.50;;
36923;SDS011;22841;50.252;18.688;2024-03-29T02:58:28;7.13;;;3.97;;
36923;SDS011;22841;50.252;18.688;2024-03-29T03:00:55;7.53;;;4.05;;
36923;SDS011;22841;50.252;18.688;2024-03-29T03:03:23;8.52;;;5.25;;
36923;SDS011;22841;50.252;18.688;2024-03-29T03:05:52;7.75;;;4.30;;
36923;SDS011;22841;50.252;18.688;2024-03-29T03:08:42;6.50;;;3.92;;
36923;SDS011;22841;50.252;18.688;2024-03-29T03:14:44;8.07;;;4.50;;
36923;SDS011;22841;50.252;18.688;2024-03-29T03:17:10;11.07;;;5.60;;
36923;SDS011;22841;50.252;18.688;2024-03-29T03:19:36;8.85;;;5.65;;
36923;SDS011;22841;50.252;18.688;2024-03-29T03:22:02;7.45;;;5.45;;
36923;SDS011;22841;50.252;18.688;2024-03-29T03:24:28;9.13;;;4.90;;
36923;SDS011;22841;50.252;18.688;2024-03-29T03:26:54;9.45;;;4.88;;
36923;SDS011;22841;50.252;18.688;2024-03-29T03:29:20;9.40;;;5.47;;
36923;SDS011;22841;50.252;18.688;2024-03-29T03:31:46;7.85;;;5.28;;
36923;SDS011;22841;50.252;18.688;2024-03-29T03:34:12;8.73;;;5.35;;
36923;SDS011;22841;50.252;18.688;2024-03-29T03:36:38;16.45;;;6.20;;
36923;SDS011;22841;50.252;18.688;2024-03-29T03:39:04;8.10;;;5.50;;
36923;SDS011;22841;50.252;18.688;2024-03-29T03:41:30;7.75;;;5.55;;
36923;SDS011;22841;50.252;18.688;2024-03-29T03:43:56;11.70;;;5.72;;
36923;SDS011;22841;50.252;18.688;2024-03-29T03:46:22;9.15;;;6.75;;
36923;SDS011;22841;50.252;18.688;2024-03-29T03:48:48;7.82;;;5.78;;
36923;SDS011;22841;50.252;18.688;2024-03-29T03:51:14;10.15;;;6.25;;
36923;SDS011;22841;50.252;18.688;2024-03-29T03:53:41;10.02;;;6.22;;
36923;SDS011;22841;50.252;18.688;2024-03-29T03:56:07;9.57;;;6.00;;
36923;SDS011;22841;50.252;18.688;2024-03-29T03:58:33;11.23;;;6.85;;
36923;SDS011;22841;50.252;18.688;2024-03-29T04:01:05;9.75;;;6.40;;
36923;SDS011;22841;50.252;18.688;2024-03-29T04:03:31;17.20;;;6.78;;
36923;SDS011;22841;50.252;18.688;2024-03-29T04:05:57;9.25;;;6.00;;
36923;SDS011;22841;50.252;18.688;2024-03-29T04:08:28;8.23;;;5.38;;
36923;SDS011;22841;50.252;18.688;2024-03-29T04:10:54;10.82;;;5.97;;
36923;SDS011;22841;50.252;18.688;2024-03-29T04:13:20;13.30;;;5.68;;
36923;SDS011;22841;50.252;18.688;2024-03-29T04:15:46;11.05;;;6.40;;
36923;SDS011;22841;50.252;18.688;2024-03-29T04:18:12;14.43;;;6.20;;
36923;SDS011;22841;50.252;18.688;2024-03-29T04:20:38;8.73;;;6.22;;
36923;SDS011;22841;50.252;18.688;2024-03-29T04:23:04;8.98;;;6.18;;
36923;SDS011;22841;50.252;18.688;2024-03-29T04:25:31;10.70;;;6.63;;
36923;SDS011;22841;50.252;18.688;2024-03-29T04:27:58;9.70;;;6.47;;
36923;SDS011;22841;50.252;18.688;2024-03-29T04:30:24;13.68;;;6.53;;
36923;SDS011;22841;50.252;18.688;2024-03-29T04:32:50;8.32;;;5.75;;
36923;SDS011;22841;50.252;18.688;2024-03-29T04:35:16;11.07;;;6.05;;
36923;SDS011;22841;50.252;18.688;2024-03-29T04:38:07;16.92;;;7.15;;
36923;SDS011;22841;50.252;18.688;2024-03-29T04:40:34;13.93;;;6.35;;
36923;SDS011;22841;50.252;18.688;2024-03-29T04:43:00;12.10;;;6.43;;
36923;SDS011;22841;50.252;18.688;2024-03-29T04:45:26;11.43;;;7.82;;
36923;SDS011;22841;50.252;18.688;2024-03-29T04:47:52;11.48;;;6.40;;
36923;SDS011;22841;50.252;18.688;2024-03-29T04:50:18;12.30;;;6.82;;
36923;SDS011;22841;50.252;18.688;2024-03-29T04:52:44;12.00;;;6.63;;
36923;SDS011;22841;50.252;18.688;2024-03-29T04:55:10;12.00;;;6.95;;
36923;SDS011;22841;50.252;18.688;2024-03-29T04:57:36;12.43;;;7.40;;
36923;SDS011;22841;50.252;18.688;2024-03-29T05:00:02;13.10;;;6.32;;
36923;SDS011;22841;50.252;18.688;2024-03-29T05:02:29;12.38;;;6.28;;
36923;SDS011;22841;50.252;18.688;2024-03-29T05:04:56;9.52;;;5.90;;
36923;SDS011;22841;50.252;18.688;2024-03-29T05:10:14;10.80;;;6.07;;
36923;SDS011;22841;50.252;18.688;2024-03-29T05:12:42;11.73;;;5.88;;
36923;SDS011;22841;50.252;18.688;2024-03-29T05:15:08;13.15;;;6.05;;
36923;SDS011;22841;50.252;18.688;2024-03-29T05:17:34;10.65;;;6.45;;
36923;SDS011;22841;50.252;18.688;2024-03-29T05:20:02;10.32;;;5.70;;
36923;SDS011;22841;50.252;18.688;2024-03-29T05:22:28;12.05;;;5.63;;
36923;SDS011;22841;50.252;18.688;2024-03-29T05:24:54;9.93;;;5.53;;
36923;SDS011;22841;50.252;18.688;2024-03-29T05:27:20;11.32;;;6.50;;
36923;SDS011;22841;50.252;18.688;2024-03-29T05:29:46;8.00;;;4.95;;
36923;SDS011;22841;50.252;18.688;2024-03-29T05:32:12;10.93;;;5.43;;
36923;SDS011;22841;50.252;18.688;2024-03-29T05:34:38;10.07;;;5.45;;
36923;SDS011;22841;50.252;18.688;2024-03-29T05:37:04;9.98;;;5.22;;
36923;SDS011;22841;50.252;18.688;2024-03-29T05:39:31;7.93;;;5.05;;
36923;SDS011;22841;50.252;18.688;2024-03-29T05:41:57;9.43;;;5.55;;
36923;SDS011;22841;50.252;18.688;2024-03-29T05:44:23;9.20;;;5.93;;
36923;SDS011;22841;50.252;18.688;2024-03-29T05:46:49;8.55;;;4.60;;
36923;SDS011;22841;50.252;18.688;2024-03-29T05:49:15;9.30;;;3.97;;
36923;SDS011;22841;50.252;18.688;2024-03-29T05:51:42;9.13;;;4.53;;
36923;SDS011;22841;50.252;18.688;2024-03-29T05:54:08;6.60;;;4.05;;
36923;SDS011;22841;50.252;18.688;2024-03-29T05:56:34;7.57;;;3.50;;
36923;SDS011;22841;50.252;18.688;2024-03-29T05:59:00;12.52;;;4.97;;
36923;SDS011;22841;50.252;18.688;2024-03-29T06:01:26;5.93;;;3.08;;
36923;SDS011;22841;50.252;18.688;2024-03-29T06:03:52;6.40;;;3.35;;
36923;SDS011;22841;50.252;18.688;2024-03-29T06:06:20;6.82;;;3.30;;
36923;SDS011;22841;50.252;18.688;2024-03-29T06:14:08;6.78;;;3.55;;
36923;SDS011;22841;50.252;18.688;2024-03-29T06:16:34;4.50;;;2.75;;
36923;SDS011;22841;50.252;18.688;2024-03-29T06:19:19;4.63;;;3.05;;
36923;SDS011;22841;50.252;18.688;2024-03-29T06:21:45;4.88;;;3.58;;
36923;SDS011;22841;50.252;18.688;2024-03-29T06:24:11;6.90;;;2.88;;
36923;SDS011;22841;50.252;18.688;2024-03-29T06:26:38;7.60;;;3.15;;
36923;SDS011;22841;50.252;18.688;2024-03-29T06:29:04;4.85;;;3.45;;
36923;SDS011;22841;50.252;18.688;2024-03-29T06:31:30;7.93;;;3.42;;
36923;SDS011;22841;50.252;18.688;2024-03-29T06:33:59;11.60;;;3.58;;
36923;SDS011;22841;50.252;18.688;2024-03-29T06:36:26;7.28;;;3.72;;
36923;SDS011;22841;50.252;18.688;2024-03-29T06:38:53;6.70;;;4.00;;
36923;SDS011;22841;50.252;18.688;2024-03-29T06:41:20;7.20;;;4.18;;
36923;SDS011;22841;50.252;18.688;2024-03-29T06:43:46;8.80;;;4.25;;
36923;SDS011;22841;50.252;18.688;2024-03-29T06:46:13;11.05;;;4.10;;
36923;SDS011;22841;50.252;18.688;2024-03-29T06:48:39;7.60;;;4.20;;
36923;SDS011;22841;50.252;18.688;2024-03-29T06:51:05;5.70;;;3.85;;
36923;SDS011;22841;50.252;18.688;2024-03-29T06:53:32;5.95;;;3.38;;
36923;SDS011;22841;50.252;18.688;2024-03-29T06:55:59;7.05;;;3.65;;
36923;SDS011;22841;50.252;18.688;2024-03-29T06:58:27;6.75;;;3.03;;
36923;SDS011;22841;50.252;18.688;2024-03-29T07:00:53;7.43;;;3.85;;
36923;SDS011;22841;50.252;18.688;2024-03-29T07:03:19;7.00;;;3.08;;
36923;SDS011;22841;50.252;18.688;2024-03-29T07:05:46;8.40;;;3.63;;
36923;SDS011;22841;50.252;18.688;2024-03-29T07:08:12;10.68;;;4.53;;
36923;SDS011;22841;50.252;18.688;2024-03-29T07:10:38;6.70;;;3.22;;
36923;SDS011;22841;50.252;18.688;2024-03-29T07:13:07;7.47;;;3.50;;
36923;SDS011;22841;50.252;18.688;2024-03-29T07:15:34;9.43;;;3.58;;
36923;SDS011;22841;50.252;18.688;2024-03-29T07:18:00;9.77;;;3.28;;
36923;SDS011;22841;50.252;18.688;2024-03-29T07:20:28;10.98;;;3.28;;
36923;SDS011;22841;50.252;18.688;2024-03-29T07:22:55;6.80;;;2.75;;
36923;SDS011;22841;50.252;18.688;2024-03-29T07:25:21;8.82;;;3.10;;
36923;SDS011;22841;50.252;18.688;2024-03-29T07:27:47;6.45;;;2.35;;
36923;SDS011;22841;50.252;18.688;2024-03-29T07:30:15;6.95;;;3.47;;
36923;SDS011;22841;50.252;18.688;2024-03-29T07:32:41;8.13;;;3.33;;
36923;SDS011;22841;50.252;18.688;2024-03-29T07:35:08;8.48;;;3.65;;
36923;SDS011;22841;50.252;18.688;2024-03-29T07:37:34;10.27;;;2.90;;
36923;SDS011;22841;50.252;18.688;2024-03-29T07:40:00;6.97;;;2.42;;
36923;SDS011;22841;50.252;18.688;2024-03-29T07:42:26;3.15;;;2.22;;
36923;SDS011;22841;50.252;18.688;2024-03-29T07:44:52;7.65;;;2.58;;
36923;SDS011;22841;50.252;18.688;2024-03-29T07:47:18;8.63;;;3.13;;
36923;SDS011;22841;50.252;18.688;2024-03-29T07:49:44;9.68;;;2.40;;
36923;SDS011;22841;50.252;18.688;2024-03-29T07:52:11;5.03;;;2.85;;
36923;SDS011;22841;50.252;18.688;2024-03-29T07:54:37;8.13;;;2.55;;
36923;SDS011;22841;50.252;18.688;2024-03-29T07:57:04;6.75;;;2.60;;
36923;SDS011;22841;50.252;18.688;2024-03-29T07:59:33;7.32;;;1.98;;
36923;SDS011;22841;50.252;18.688;2024-03-29T08:02:00;3.75;;;1.70;;
36923;SDS011;22841;50.252;18.688;2024-03-29T08:04:27;5.63;;;2.03;;
36923;SDS011;22841;50.252;18.688;2024-03-29T08:06:54;6.72;;;1.92;;
36923;SDS011;22841;50.252;18.688;2024-03-29T08:09:20;6.32;;;1.80;;
36923;SDS011;22841;50.252;18.688;2024-03-29T08:11:46;2.75;;;2.10;;
36923;SDS011;22841;50.252;18.688;2024-03-29T08:14:12;5.43;;;1.98;;
36923;SDS011;22841;50.252;18.688;2024-03-29T08:16:38;1.90;;;1.50;;
36923;SDS011;22841;50.252;18.688;2024-03-29T08:19:04;4.35;;;2.00;;
36923;SDS011;22841;50.252;18.688;2024-03-29T08:21:30;2.60;;;1.65;;
36923;SDS011;22841;50.252;18.688;2024-03-29T08:23:56;7.57;;;2.33;;
36923;SDS011;22841;50.252;18.688;2024-03-29T08:26:23;1.88;;;1.30;;
36923;SDS011;22841;50.252;18.688;2024-03-29T08:28:50;5.63;;;1.75;;
36923;SDS011;22841;50.252;18.688;2024-03-29T08:31:16;2.47;;;1.45;;
36923;SDS011;22841;50.252;18.688;2024-03-29T08:33:42;5.78;;;1.67;;
36923;SDS011;22841;50.252;18.688;2024-03-29T08:36:09;5.90;;;2.65;;
36923;SDS011;22841;50.252;18.688;2024-03-29T08:38:36;3.63;;;1.55;;
36923;SDS011;22841;50.252;18.688;2024-03-29T08:41:06;3.35;;;1.38;;
36923;SDS011;22841;50.252;18.688;2024-03-29T08:43:33;4.68;;;1.98;;
36923;SDS011;22841;50.252;18.688;2024-03-29T08:45:59;5.30;;;1.30;;
36923;SDS011;22841;50.252;18.688;2024-03-29T08:48:26;4.93;;;1.50;;
36923;SDS011;22841;50.252;18.688;2024-03-29T08:50:53;2.80;;;1.60;;
36923;SDS011;22841;50.252;18.688;2024-03-29T08:53:19;4.35;;;1.20;;
36923;SDS011;22841;50.252;18.688;2024-03-29T08:55:47;5.20;;;1.20;;
36923;SDS011;22841;50.252;18.688;2024-03-29T08:58:16;7.28;;;1.65;;
36923;SDS011;22841;50.252;18.688;2024-03-29T09:00:51;4.80;;;2.08;;
36923;SDS011;22841;50.252;18.688;2024-03-29T09:03:21;6.35;;;1.52;;
36923;SDS011;22841;50.252;18.688;2024-03-29T09:05:48;4.25;;;1.73;;
36923;SDS011;22841;50.252;18.688;2024-03-29T09:08:15;3.50;;;1.70;;
36923;SDS011;22841;50.252;18.688;2024-03-29T09:10:48;2.83;;;1.40;;
36923;SDS011;22841;50.252;18.688;2024-03-29T09:13:14;5.00;;;1.13;;
36923;SDS011;22841;50.252;18.688;2024-03-29T09:15:41;2.80;;;1.30;;
36923;SDS011;22841;50.252;18.688;2024-03-29T09:18:07;1.70;;;1.08;;
36923;SDS011;22841;50.252;18.688;2024-03-29T09:20:44;4.78;;;1.52;;
36923;SDS011;22841;50.252;18.688;2024-03-29T09:23:11;2.25;;;1.10;;
36923;SDS011;22841;50.252;18.688;2024-03-29T09:25:41;5.22;;;1.23;;
36923;SDS011;22841;50.252;18.688;2024-03-29T09:28:07;4.43;;;1.05;;
36923;SDS011;22841;50.252;18.688;2024-03-29T09:30:35;5.55;;;1.50;;
36923;SDS011;22841;50.252;18.688;2024-03-29T09:33:01;7.22;;;1.27;;
36923;SDS011;22841;50.252;18.688;2024-03-29T09:35:32;0.80;;;0.75;;
36923;SDS011;22841;50.252;18.688;2024-03-29T09:37:58;4.10;;;1.15;;
36923;SDS011;22841;50.252;18.688;2024-03-29T09:40:25;3.63;;;1.17;;
36923;SDS011;22841;50.252;18.688;2024-03-29T09:42:52;3.78;;;1.58;;
36923;SDS011;22841;50.252;18.688;2024-03-29T09:45:20;3.83;;;1.10;;
36923;SDS011;22841;50.252;18.688;2024-03-29T09:47:47;1.80;;;1.00;;
36923;SDS011;22841;50.252;18.688;2024-03-29T09:50:15;1.25;;;1.02;;
36923;SDS011;22841;50.252;18.688;2024-03-29T09:52:41;2.90;;;1.30;;
36923;SDS011;22841;50.252;18.688;2024-03-29T09:55:08;1.77;;;1.10;;
36923;SDS011;22841;50.252;18.688;2024-03-29T09:57:35;3.35;;;1.50;;
36923;SDS011;22841;50.252;18.688;2024-03-29T10:00:01;2.50;;;1.55;;
36923;SDS011;22841;50.252;18.688;2024-03-29T10:02:30;3.10;;;1.17;;
36923;SDS011;22841;50.252;18.688;2024-03-29T10:04:58;1.25;;;0.90;;
36923;SDS011;22841;50.252;18.688;2024-03-29T10:07:29;5.57;;;1.30;;
36923;SDS011;22841;50.252;18.688;2024-03-29T10:09:57;3.20;;;1.20;;
36923;SDS011;22841;50.252;18.688;2024-03-29T10:12:26;1.73;;;0.90;;
36923;SDS011;22841;50.252;18.688;2024-03-29T10:26:24;3.20;;;0.93;;
36923;SDS011;22841;50.252;18.688;2024-03-29T10:28:50;1.23;;;0.90;;
36923;SDS011;22841;50.252;18.688;2024-03-29T10:31:17;1.00;;;0.77;;
36923;SDS011;22841;50.252;18.688;2024-03-29T10:33:44;5.55;;;0.70;;
36923;SDS011;22841;50.252;18.688;2024-03-29T10:36:10;2.65;;;0.68;;
36923;SDS011;22841;50.252;18.688;2024-03-29T10:38:40;1.30;;;0.65;;
36923;SDS011;22841;50.252;18.688;2024-03-29T10:41:06;2.97;;;0.60;;
36923;SDS011;22841;50.252;18.688;2024-03-29T10:43:33;0.45;;;0.40;;
36923;SDS011;22841;50.252;18.688;2024-03-29T10:46:00;1.92;;;0.60;;
36923;SDS011;22841;50.252;18.688;2024-03-29T10:48:26;1.13;;;0.77;;
36923;SDS011;22841;50.252;18.688;2024-03-29T10:50:54;0.85;;;0.75;;
36923;SDS011;22841;50.252;18.688;2024-03-29T10:53:22;0.52;;;0.40;;
36923;SDS011;22841;50.252;18.688;2024-03-29T10:55:50;4.25;;;1.40;;
36923;SDS011;22841;50.252;18.688;2024-03-29T10:58:30;1.77;;;1.10;;
36923;SDS011;22841;50.252;18.688;2024-03-29T11:01:00;1.40;;;0.77;;
36923;SDS011;22841;50.252;18.688;2024-03-29T11:05:55;0.65;;;0.50;;
36923;SDS011;22841;50.252;18.688;2024-03-29T11:08:26;1.10;;;0.70;;
36923;SDS011;22841;50.252;18.688;2024-03-29T11:10:57;0.85;;;0.45;;
36923;SDS011;22841;50.252;18.688;2024-03-29T11:16:09;0.88;;;0.63;;
36923;SDS011;22841;50.252;18.688;2024-03-29T11:18:37;0.68;;;0.60;;
36923;SDS011;22841;50.252;18.688;2024-03-29T11:21:04;2.78;;;0.60;;
36923;SDS011;22841;50.252;18.688;2024-03-29T11:23:33;1.90;;;1.00;;
36923;SDS011;22841;50.252;18.688;2024-03-29T11:26:25;1.35;;;0.70;;
36923;SDS011;22841;50.252;18.688;2024-03-29T11:28:53;0.98;;;0.60;;
36923;SDS011;22841;50.252;18.688;2024-03-29T11:31:23;2.28;;;0.85;;
36923;SDS011;22841;50.252;18.688;2024-03-29T11:33:51;4.65;;;1.33;;
36923;SDS011;22841;50.252;18.688;2024-03-29T11:41:22;3.15;;;0.98;;
36923;SDS011;22841;50.252;18.688;2024-03-29T11:43:53;1.52;;;0.95;;
36923;SDS011;22841;50.252;18.688;2024-03-29T11:46:20;0.90;;;0.60;;
36923;SDS011;22841;50.252;18.688;2024-03-29T11:48:46;1.15;;;0.77;;
36923;SDS011;22841;50.252;18.688;2024-03-29T11:51:15;5.00;;;0.98;;
36923;SDS011;22841;50.252;18.688;2024-03-29T11:53:44;2.47;;;1.05;;
36923;SDS011;22841;50.252;18.688;2024-03-29T11:56:11;1.23;;;0.80;;
36923;SDS011;22841;50.252;18.688;2024-03-29T11:58:37;0.85;;;0.65;;
36923;SDS011;22841;50.252;18.688;2024-03-29T12:01:04;0.93;;;0.73;;
36923;SDS011;22841;50.252;18.688;2024-03-29T12:03:31;1.73;;;0.90;;
36923;SDS011;22841;50.252;18.688;2024-03-29T12:05:59;1.08;;;0.75;;
36923;SDS011;22841;50.252;18.688;2024-03-29T12:08:28;2.30;;;1.08;;
36923;SDS011;22841;50.252;18.688;2024-03-29T12:10:57;2.22;;;0.90;;
36923;SDS011;22841;50.252;18.688;2024-03-29T12:13:24;2.63;;;1.00;;
36923;SDS011;22841;50.252;18.688;2024-03-29T12:15:50;5.07;;;0.85;;
36923;SDS011;22841;50.252;18.688;2024-03-29T12:18:18;1.05;;;0.80;;
36923;SDS011;22841;50.252;18.688;2024-03-29T12:20:45;1.75;;;0.65;;
36923;SDS011;22841;50.252;18.688;2024-03-29T12:23:15;0.85;;;0.80;;
36923;SDS011;22841;50.252;18.688;2024-03-29T12:25:43;1.05;;;0.45;;
36923;SDS011;22841;50.252;18.688;2024-03-29T12:31:30;1.15;;;0.80;;
36923;SDS011;22841;50.252;18.688;2024-03-29T12:33:56;2.03;;;0.80;;
36923;SDS011;22841;50.252;18.688;2024-03-29T12:36:24;0.93;;;0.65;;
36923;SDS011;22841;50.252;18.688;2024-03-29T12:38:54;1.08;;;0.60;;
36923;SDS011;22841;50.252;18.688;2024-03-29T12:41:23;1.45;;;0.90;;
36923;SDS011;22841;50.252;18.688;2024-03-29T12:43:50;0.80;;;0.70;;
36923;SDS011;22841;50.252;18.688;2024-03-29T12:46:17;2.22;;;0.98;;
36923;SDS011;22841;50.252;18.688;2024-03-29T12:48:43;2.13;;;0.88;;
36923;SDS011;22841;50.252;18.688;2024-03-29T12:51:09;1.88;;;0.98;;
36923;SDS011;22841;50.252;18.688;2024-03-29T12:53:38;1.50;;;0.85;;
36923;SDS011;22841;50.252;18.688;2024-03-29T12:56:05;1.58;;;1.00;;
36923;SDS011;22841;50.252;18.688;2024-03-29T12:58:31;2.70;;;1.00;;
36923;SDS011;22841;50.252;18.688;2024-03-29T13:00:57;2.28;;;0.95;;
36923;SDS011;22841;50.252;18.688;2024-03-29T13:03:48;0.85;;;0.70;;
36923;SDS011;22841;50.252;18.688;2024-03-29T13:06:39;3.60;;;1.00;;
36923;SDS011;22841;50.252;18.688;2024-03-29T13:09:05;2.00;;;1.08;;
36923;SDS011;22841;50.252;18.688;2024-03-29T13:11:33;2.05;;;1.00;;
36923;SDS011;22841;50.252;18.688;2024-03-29T13:13:59;3.20;;;1.20;;
36923;SDS011;22841;50.252;18.688;2024-03-29T13:16:26;1.15;;;1.05;;
36923;SDS011;22841;50.252;18.688;2024-03-29T13:18:52;1.27;;;0.80;;
36923;SDS011;22841;50.252;18.688;2024-03-29T13:21:18;1.55;;;0.90;;
36923;SDS011;22841;50.252;18.688;2024-03-29T13:23:44;2.05;;;0.90;;
36923;SDS011;22841;50.252;18.688;2024-03-29T13:26:10;3.80;;;1.15;;
36923;SDS011;22841;50.252;18.688;2024-03-29T13:28:36;1.40;;;0.73;;
36923;SDS011;22841;50.252;18.688;2024-03-29T13:34:24;1.50;;;0.75;;
36923;SDS011;22841;50.252;18.688;2024-03-29T13:36:50;2.03;;;0.98;;
36923;SDS011;22841;50.252;18.688;2024-03-29T13:39:16;2.30;;;0.98;;
36923;SDS011;22841;50.252;18.688;2024-03-29T13:41:42;1.42;;;1.13;;
36923;SDS011;22841;50.252;18.688;2024-03-29T13:44:08;1.80;;;1.02;;
36923;SDS011;22841;50.252;18.688;2024-03-29T13:46:35;1.45;;;1.08;;
36923;SDS011;22841;50.252;18.688;2024-03-29T13:49:02;0.68;;;0.65;;
36923;SDS011;22841;50.252;18.688;2024-03-29T13:51:31;1.75;;;0.73;;
36923;SDS011;22841;50.252;18.688;2024-03-29T13:53:57;1.70;;;0.75;;
36923;SDS011;22841;50.252;18.688;2024-03-29T13:56:24;1.45;;;0.80;;
36923;SDS011;22841;50.252;18.688;2024-03-29T13:58:50;4.07;;;0.90;;
36923;SDS011;22841;50.252;18.688;2024-03-29T14:01:17;4.22;;;0.98;;
36923;SDS011;22841;50.252;18.688;2024-03-29T14:03:43;4.03;;;0.93;;
36923;SDS011;22841;50.252;18.688;2024-03-29T14:06:09;6.68;;;0.90;;
36923;SDS011;22841;50.252;18.688;2024-03-29T14:08:36;5.13;;;1.20;;
36923;SDS011;22841;50.252;18.688;2024-03-29T14:11:02;2.13;;;1.10;;
36923;SDS011;22841;50.252;18.688;2024-03-29T14:13:28;3.47;;;0.90;;
36923;SDS011;22841;50.252;18.688;2024-03-29T14:15:54;4.13;;;0.80;;
36923;SDS011;22841;50.252;18.688;2024-03-29T14:18:25;3.50;;;0.80;;
36923;SDS011;22841;50.252;18.688;2024-03-29T14:20:51;9.63;;;1.42;;
36923;SDS011;22841;50.252;18.688;2024-03-29T14:23:17;3.53;;;1.13;;
36923;SDS011;22841;50.252;18.688;2024-03-29T14:25:48;2.67;;;1.08;;
36923;SDS011;22841;50.252;18.688;2024-03-29T14:28:14;5.82;;;1.27;;
36923;SDS011;22841;50.252;18.688;2024-03-29T14:30:40;1.77;;;0.98;;
36923;SDS011;22841;50.252;18.688;2024-03-29T14:33:06;4.93;;;1.10;;
36923;SDS011;22841;50.252;18.688;2024-03-29T14:35:36;6.65;;;1.13;;
36923;SDS011;22841;50.252;18.688;2024-03-29T14:38:02;2.53;;;1.05;;
36923;SDS011;22841;50.252;18.688;2024-03-29T14:40:28;4.13;;;1.35;;
36923;SDS011;22841;50.252;18.688;2024-03-29T14:42:55;1.88;;;1.10;;
36923;SDS011;22841;50.252;18.688;2024-03-29T14:45:23;6.05;;;1.10;;
36923;SDS011;22841;50.252;18.688;2024-03-29T14:47:49;2.65;;;1.25;;
36923;SDS011;22841;50.252;18.688;2024-03-29T14:50:15;15.48;;;1.60;;
36923;SDS011;22841;50.252;18.688;2024-03-29T14:52:43;4.93;;;1.13;;
36923;SDS011;22841;50.252;18.688;2024-03-29T14:55:09;6.43;;;1.55;;
36923;SDS011;22841;50.252;18.688;2024-03-29T14:57:35;5.30;;;1.70;;
36923;SDS011;22841;50.252;18.688;2024-03-29T15:00:02;5.15;;;1.35;;
36923;SDS011;22841;50.252;18.688;2024-03-29T15:02:29;2.88;;;1.75;;
36923;SDS011;22841;50.252;18.688;2024-03-29T15:04:56;5.00;;;1.73;;
36923;SDS011;22841;50.252;18.688;2024-03-29T15:07:22;2.22;;;1.38;;
36923;SDS011;22841;50.252;18.688;2024-03-29T15:09:51;4.43;;;1.48;;
36923;SDS011;22841;50.252;18.688;2024-03-29T15:12:17;6.25;;;1.90;;
36923;SDS011;22841;50.252;18.688;2024-03-29T15:14:43;5.07;;;1.80;;
36923;SDS011;22841;50.252;18.688;2024-03-29T15:17:09;4.53;;;1.33;;
36923;SDS011;22841;50.252;18.688;2024-03-29T15:19:35;5.93;;;1.55;;
36923;SDS011;22841;50.252;18.688;2024-03-29T15:22:02;3.85;;;1.50;;